THY53R LTCG-LTAC
Flight info
| Callsign | THY53R |
|---|---|
| Flight time | 1h 1m |
| Altitude | 34000 |
| Route | TEME1M TEMEL UW71 ILHAN AC093 NAZPU AC095 AC097 BOZOG ANK |
| Aircraft | B738/M-SDE2E3FGHIRWXY/LB1 |
Departure
| Time | 2026-04-27 08:43 |
|---|---|
| Airport | Trabzon International Airport (LTCG) |
Arrival
| Time | 2026-04-27 09:44 |
|---|---|
| Airport | Esenboğa International Airport (LTAC) |
| Time | Latitude | Longitude | Altitude | Speed | Heading |
|---|---|---|---|---|---|
| 2026-04-27 08:24 | 40.99569 | 39.78084 | 115 ft | 0 kts | 202° |
| 2026-04-27 08:34 | 40.99576 | 39.78088 | 96 ft | 2 kts | 199° |
| 2026-04-27 08:34 | 40.99592 | 39.78095 | 90 ft | 2 kts | 198° |
| 2026-04-27 08:35 | 40.99608 | 39.78101 | 118 ft | 2 kts | 189° |
| 2026-04-27 08:35 | 40.99624 | 39.78102 | 111 ft | 2 kts | 156° |
| 2026-04-27 08:35 | 40.99635 | 39.78088 | 111 ft | 1 kts | 114° |
| 2026-04-27 08:35 | 40.99637 | 39.78084 | 112 ft | 0 kts | 112° |
| 2026-04-27 08:37 | 40.99628 | 39.78112 | 111 ft | 8 kts | 112° |
| 2026-04-27 08:37 | 40.99595 | 39.78216 | 113 ft | 15 kts | 112° |
| 2026-04-27 08:38 | 40.99552 | 39.78357 | 113 ft | 17 kts | 112° |
| 2026-04-27 08:38 | 40.99503 | 39.78513 | 114 ft | 19 kts | 112° |
| 2026-04-27 08:38 | 40.99451 | 39.78683 | 114 ft | 20 kts | 112° |
| 2026-04-27 08:38 | 40.99398 | 39.78855 | 113 ft | 20 kts | 111° |
| 2026-04-27 08:39 | 40.99344 | 39.79028 | 105 ft | 21 kts | 112° |
| 2026-04-27 08:39 | 40.99347 | 39.79156 | 101 ft | 7 kts | 69° |
| 2026-04-27 08:39 | 40.99363 | 39.79212 | 103 ft | 7 kts | 69° |
| 2026-04-27 08:39 | 40.99388 | 39.79295 | 105 ft | 13 kts | 72° |
| 2026-04-27 08:40 | 40.99363 | 39.79441 | 106 ft | 19 kts | 112° |
| 2026-04-27 08:40 | 40.99314 | 39.79597 | 106 ft | 18 kts | 112° |
| 2026-04-27 08:40 | 40.99267 | 39.79749 | 106 ft | 17 kts | 112° |
| 2026-04-27 08:40 | 40.99223 | 39.79895 | 106 ft | 17 kts | 112° |
| 2026-04-27 08:41 | 40.99179 | 39.80035 | 105 ft | 16 kts | 112° |
| 2026-04-27 08:41 | 40.99138 | 39.80170 | 101 ft | 16 kts | 114° |
| 2026-04-27 08:41 | 40.99066 | 39.80270 | 103 ft | 15 kts | 142° |
| 2026-04-27 08:41 | 40.99022 | 39.80371 | 101 ft | 10 kts | 86° |
| 2026-04-27 08:42 | 40.99070 | 39.80387 | 100 ft | 9 kts | 300° |
| 2026-04-27 08:42 | 40.99080 | 39.80351 | 101 ft | 0 kts | 294° |
| 2026-04-27 08:42 | 40.99114 | 39.80242 | 102 ft | 43 kts | 291° |
| 2026-04-27 08:43 | 40.99343 | 39.79505 | 106 ft | 125 kts | 292° |
| 2026-04-27 08:43 | 40.99752 | 39.78164 | 261 ft | 179 kts | 293° |
| 2026-04-27 08:43 | 41.00253 | 39.76688 | 1290 ft | 179 kts | 296° |
| 2026-04-27 08:43 | 41.00772 | 39.75222 | 2469 ft | 168 kts | 294° |
| 2026-04-27 08:44 | 41.01194 | 39.73865 | 3505 ft | 160 kts | 279° |
| 2026-04-27 08:44 | 41.01296 | 39.72267 | 3856 ft | 189 kts | 274° |
| 2026-04-27 08:44 | 41.01406 | 39.70419 | 4075 ft | 214 kts | 275° |
| 2026-04-27 08:44 | 41.01539 | 39.68375 | 4445 ft | 228 kts | 275° |
| 2026-04-27 08:45 | 41.01689 | 39.66178 | 4755 ft | 249 kts | 275° |
| 2026-04-27 08:45 | 41.01855 | 39.63854 | 5421 ft | 257 kts | 276° |
| 2026-04-27 08:45 | 41.02029 | 39.61495 | 6287 ft | 260 kts | 276° |
| 2026-04-27 08:45 | 41.02210 | 39.59087 | 7055 ft | 265 kts | 277° |
| 2026-04-27 08:46 | 41.02398 | 39.56634 | 7860 ft | 269 kts | 276° |
| 2026-04-27 08:46 | 41.02586 | 39.54192 | 8677 ft | 272 kts | 276° |
| 2026-04-27 08:46 | 41.02783 | 39.51649 | 9496 ft | 276 kts | 276° |
| 2026-04-27 08:46 | 41.02978 | 39.49140 | 10273 ft | 279 kts | 276° |
| 2026-04-27 08:47 | 41.03178 | 39.46569 | 11033 ft | 282 kts | 276° |
| 2026-04-27 08:47 | 41.03380 | 39.43982 | 11816 ft | 283 kts | 276° |
| 2026-04-27 08:47 | 41.03544 | 39.41865 | 12438 ft | 286 kts | 276° |
| 2026-04-27 08:47 | 41.03749 | 39.39229 | 13210 ft | 289 kts | 276° |
| 2026-04-27 08:48 | 41.03955 | 39.36563 | 13965 ft | 292 kts | 276° |
| 2026-04-27 08:48 | 41.04162 | 39.33876 | 14632 ft | 295 kts | 276° |
| 2026-04-27 08:48 | 41.04371 | 39.31162 | 15324 ft | 297 kts | 276° |
| 2026-04-27 08:48 | 41.04580 | 39.28435 | 16034 ft | 299 kts | 276° |
| 2026-04-27 08:49 | 41.04791 | 39.25676 | 16721 ft | 302 kts | 276° |
| 2026-04-27 08:49 | 41.05002 | 39.22924 | 17398 ft | 305 kts | 275° |
| 2026-04-27 08:49 | 41.05216 | 39.20109 | 18082 ft | 308 kts | 275° |
| 2026-04-27 08:49 | 41.05431 | 39.17266 | 18721 ft | 311 kts | 275° |
| 2026-04-27 08:50 | 41.05647 | 39.14401 | 19285 ft | 315 kts | 276° |
| 2026-04-27 08:50 | 41.05888 | 39.11475 | 19613 ft | 328 kts | 277° |
| 2026-04-27 08:50 | 41.06173 | 39.08396 | 19734 ft | 345 kts | 277° |
| 2026-04-27 08:50 | 41.06482 | 39.05153 | 19850 ft | 362 kts | 277° |
| 2026-04-27 08:51 | 41.06804 | 39.01769 | 19967 ft | 378 kts | 277° |
| 2026-04-27 08:51 | 41.07135 | 38.98260 | 20225 ft | 388 kts | 277° |
| 2026-04-27 08:51 | 41.07468 | 38.94678 | 20706 ft | 392 kts | 277° |
| 2026-04-27 08:51 | 41.07800 | 38.91089 | 21237 ft | 394 kts | 277° |
| 2026-04-27 08:52 | 41.08132 | 38.87475 | 21734 ft | 397 kts | 277° |
| 2026-04-27 08:52 | 41.08465 | 38.83834 | 22205 ft | 400 kts | 277° |
| 2026-04-27 08:52 | 41.08799 | 38.80161 | 22663 ft | 403 kts | 277° |
| 2026-04-27 08:52 | 41.09137 | 38.76447 | 23128 ft | 406 kts | 277° |
| 2026-04-27 08:53 | 41.09474 | 38.72717 | 23582 ft | 409 kts | 277° |
| 2026-04-27 08:53 | 41.09811 | 38.68956 | 23980 ft | 412 kts | 277° |
| 2026-04-27 08:53 | 41.10129 | 38.65170 | 24365 ft | 414 kts | 277° |
| 2026-04-27 08:53 | 41.10441 | 38.61369 | 24763 ft | 416 kts | 277° |
| 2026-04-27 08:54 | 41.10758 | 38.57538 | 25142 ft | 418 kts | 277° |
| 2026-04-27 08:54 | 41.11060 | 38.53953 | 25484 ft | 420 kts | 277° |
| 2026-04-27 08:54 | 41.11388 | 38.50093 | 25849 ft | 422 kts | 277° |
| 2026-04-27 08:54 | 41.11716 | 38.46213 | 26198 ft | 425 kts | 277° |
| 2026-04-27 08:55 | 41.12045 | 38.42309 | 26543 ft | 427 kts | 277° |
| 2026-04-27 08:55 | 41.12374 | 38.38381 | 26880 ft | 429 kts | 277° |
| 2026-04-27 08:55 | 41.12703 | 38.34434 | 27226 ft | 431 kts | 277° |
| 2026-04-27 08:55 | 41.13032 | 38.30464 | 27539 ft | 434 kts | 276° |
| 2026-04-27 08:56 | 41.13360 | 38.26478 | 27852 ft | 436 kts | 276° |
| 2026-04-27 08:56 | 41.13688 | 38.22466 | 28172 ft | 438 kts | 276° |
| 2026-04-27 08:56 | 41.14013 | 38.18442 | 28476 ft | 440 kts | 276° |
| 2026-04-27 08:56 | 41.14338 | 38.14396 | 28775 ft | 442 kts | 276° |
| 2026-04-27 08:57 | 41.14989 | 38.06265 | 29516 ft | 442 kts | 276° |
| 2026-04-27 08:57 | 41.15311 | 38.02221 | 30002 ft | 440 kts | 276° |
| 2026-04-27 08:57 | 41.15630 | 37.98197 | 30429 ft | 438 kts | 276° |
| 2026-04-27 08:58 | 41.15943 | 37.94232 | 30761 ft | 438 kts | 276° |
| 2026-04-27 08:58 | 41.16075 | 37.90146 | 31043 ft | 438 kts | 267° |
| 2026-04-27 08:58 | 41.15812 | 37.86116 | 31379 ft | 437 kts | 264° |
| 2026-04-27 08:58 | 41.15491 | 37.82117 | 31723 ft | 436 kts | 264° |
| 2026-04-27 08:59 | 41.15161 | 37.78168 | 32058 ft | 435 kts | 264° |
| 2026-04-27 08:59 | 41.14830 | 37.74179 | 32379 ft | 435 kts | 264° |
| 2026-04-27 08:59 | 41.14509 | 37.70191 | 32676 ft | 434 kts | 264° |
| 2026-04-27 08:59 | 41.14195 | 37.66202 | 32989 ft | 434 kts | 264° |
| 2026-04-27 09:00 | 41.13888 | 37.62221 | 33290 ft | 433 kts | 264° |
| 2026-04-27 09:00 | 41.13583 | 37.58247 | 33582 ft | 433 kts | 264° |
| 2026-04-27 09:00 | 41.13279 | 37.54271 | 33888 ft | 432 kts | 264° |
| 2026-04-27 09:00 | 41.13003 | 37.50666 | 34166 ft | 431 kts | 264° |
| 2026-04-27 09:01 | 41.12698 | 37.46693 | 34183 ft | 434 kts | 264° |
| 2026-04-27 09:01 | 41.12082 | 37.38740 | 34197 ft | 432 kts | 264° |
| 2026-04-27 09:02 | 41.11466 | 37.30858 | 34207 ft | 427 kts | 264° |
| 2026-04-27 09:02 | 41.10848 | 37.23037 | 34197 ft | 425 kts | 264° |
| 2026-04-27 09:03 | 41.10227 | 37.15240 | 34202 ft | 425 kts | 264° |
| 2026-04-27 09:03 | 41.09597 | 37.07390 | 34205 ft | 432 kts | 264° |
| 2026-04-27 09:04 | 41.08951 | 36.99418 | 34195 ft | 437 kts | 264° |
| 2026-04-27 09:04 | 41.08298 | 36.91433 | 34199 ft | 438 kts | 264° |
| 2026-04-27 09:05 | 41.07640 | 36.83450 | 34202 ft | 433 kts | 264° |
| 2026-04-27 09:05 | 41.06984 | 36.75565 | 34211 ft | 429 kts | 264° |
| 2026-04-27 09:06 | 41.06326 | 36.67720 | 34222 ft | 428 kts | 264° |
| 2026-04-27 09:06 | 41.05664 | 36.59891 | 34219 ft | 427 kts | 264° |
| 2026-04-27 09:07 | 41.04998 | 36.52069 | 34211 ft | 428 kts | 264° |
| 2026-04-27 09:07 | 41.04324 | 36.44219 | 34209 ft | 429 kts | 264° |
| 2026-04-27 09:08 | 41.03643 | 36.36365 | 34202 ft | 430 kts | 264° |
| 2026-04-27 09:08 | 41.02955 | 36.28488 | 34186 ft | 431 kts | 264° |
| 2026-04-27 09:09 | 41.02260 | 36.20590 | 34166 ft | 432 kts | 264° |
| 2026-04-27 09:09 | 41.01559 | 36.12686 | 34154 ft | 433 kts | 264° |
| 2026-04-27 09:10 | 41.00850 | 36.04760 | 34150 ft | 433 kts | 264° |
| 2026-04-27 09:10 | 41.00140 | 35.96882 | 34136 ft | 434 kts | 264° |
| 2026-04-27 09:11 | 40.99420 | 35.88954 | 34130 ft | 433 kts | 264° |
| 2026-04-27 09:11 | 40.98694 | 35.81024 | 34121 ft | 433 kts | 264° |
| 2026-04-27 09:12 | 40.97966 | 35.73123 | 34110 ft | 433 kts | 264° |
| 2026-04-27 09:12 | 40.97231 | 35.65218 | 34104 ft | 432 kts | 264° |
| 2026-04-27 09:13 | 40.96492 | 35.57323 | 34103 ft | 432 kts | 264° |
| 2026-04-27 09:13 | 40.95754 | 35.49488 | 34101 ft | 432 kts | 263° |
| 2026-04-27 09:14 | 40.94546 | 35.41727 | 34098 ft | 432 kts | 251° |
| 2026-04-27 09:14 | 40.92371 | 35.34312 | 34102 ft | 433 kts | 249° |
| 2026-04-27 09:15 | 40.90163 | 35.26902 | 34094 ft | 433 kts | 250° |
| 2026-04-27 09:15 | 40.87982 | 35.19471 | 34092 ft | 434 kts | 250° |
| 2026-04-27 09:16 | 40.85812 | 35.12035 | 34089 ft | 434 kts | 250° |
| 2026-04-27 09:16 | 40.84005 | 35.05851 | 34082 ft | 434 kts | 250° |
| 2026-04-27 09:17 | 40.81824 | 34.98407 | 34081 ft | 435 kts | 250° |
| 2026-04-27 09:17 | 40.79634 | 34.90955 | 34078 ft | 436 kts | 250° |
| 2026-04-27 09:18 | 40.77436 | 34.83497 | 34076 ft | 437 kts | 250° |
| 2026-04-27 09:18 | 40.75231 | 34.76032 | 34078 ft | 437 kts | 250° |
| 2026-04-27 09:19 | 40.73003 | 34.68555 | 34074 ft | 438 kts | 249° |
| 2026-04-27 09:19 | 40.70755 | 34.61096 | 34082 ft | 438 kts | 249° |
| 2026-04-27 09:20 | 40.68499 | 34.53622 | 34072 ft | 438 kts | 249° |
| 2026-04-27 09:20 | 40.66259 | 34.46211 | 34072 ft | 438 kts | 249° |
| 2026-04-27 09:21 | 40.63998 | 34.38751 | 34077 ft | 438 kts | 249° |
| 2026-04-27 09:21 | 40.61733 | 34.31298 | 34072 ft | 438 kts | 249° |
| 2026-04-27 09:22 | 40.59467 | 34.23860 | 33764 ft | 440 kts | 249° |
| 2026-04-27 09:22 | 40.58335 | 34.20154 | 33407 ft | 433 kts | 249° |
| 2026-04-27 09:22 | 40.57219 | 34.16505 | 33006 ft | 427 kts | 249° |
| 2026-04-27 09:22 | 40.56112 | 34.12891 | 32556 ft | 423 kts | 249° |
| 2026-04-27 09:23 | 40.55017 | 34.09318 | 32135 ft | 419 kts | 249° |
| 2026-04-27 09:23 | 40.53929 | 34.05773 | 31724 ft | 416 kts | 249° |
| 2026-04-27 09:23 | 40.52851 | 34.02263 | 31309 ft | 412 kts | 249° |
| 2026-04-27 09:23 | 40.51781 | 33.98784 | 30889 ft | 409 kts | 249° |
| 2026-04-27 09:24 | 40.50716 | 33.95331 | 30496 ft | 406 kts | 249° |
| 2026-04-27 09:24 | 40.49729 | 33.91871 | 30078 ft | 403 kts | 252° |
| 2026-04-27 09:24 | 40.48867 | 33.88431 | 29613 ft | 400 kts | 253° |
| 2026-04-27 09:24 | 40.48031 | 33.84961 | 29186 ft | 396 kts | 253° |
| 2026-04-27 09:25 | 40.47195 | 33.81530 | 28769 ft | 392 kts | 253° |
| 2026-04-27 09:25 | 40.46352 | 33.78145 | 28364 ft | 388 kts | 253° |
| 2026-04-27 09:25 | 40.45506 | 33.74797 | 27940 ft | 385 kts | 251° |
| 2026-04-27 09:25 | 40.44340 | 33.71644 | 27544 ft | 383 kts | 238° |
| 2026-04-27 09:26 | 40.42724 | 33.68865 | 27136 ft | 382 kts | 228° |
| 2026-04-27 09:26 | 40.40741 | 33.66546 | 26725 ft | 381 kts | 219° |
| 2026-04-27 09:26 | 40.38642 | 33.64445 | 26338 ft | 379 kts | 218° |
| 2026-04-27 09:26 | 40.36530 | 33.62378 | 25938 ft | 377 kts | 218° |
| 2026-04-27 09:27 | 40.34432 | 33.60323 | 25543 ft | 375 kts | 218° |
| 2026-04-27 09:27 | 40.32352 | 33.58267 | 25157 ft | 373 kts | 219° |
| 2026-04-27 09:27 | 40.30286 | 33.56211 | 24777 ft | 372 kts | 219° |
| 2026-04-27 09:27 | 40.28236 | 33.54162 | 24385 ft | 370 kts | 219° |
| 2026-04-27 09:28 | 40.26196 | 33.52118 | 24004 ft | 369 kts | 219° |
| 2026-04-27 09:28 | 40.24188 | 33.50105 | 23607 ft | 368 kts | 219° |
| 2026-04-27 09:28 | 40.22159 | 33.48074 | 23160 ft | 367 kts | 219° |
| 2026-04-27 09:28 | 40.20138 | 33.46053 | 22763 ft | 364 kts | 219° |
| 2026-04-27 09:29 | 40.18125 | 33.44042 | 22358 ft | 362 kts | 219° |
| 2026-04-27 09:29 | 40.16174 | 33.41986 | 21969 ft | 359 kts | 222° |
| 2026-04-27 09:29 | 40.14298 | 33.39838 | 21591 ft | 357 kts | 223° |
| 2026-04-27 09:29 | 40.13674 | 33.39110 | 21453 ft | 356 kts | 223° |
| 2026-04-27 09:30 | 40.11875 | 33.37020 | 21096 ft | 354 kts | 223° |
| 2026-04-27 09:30 | 40.10028 | 33.34895 | 20724 ft | 352 kts | 223° |
| 2026-04-27 09:31 | 40.08188 | 33.32796 | 20362 ft | 351 kts | 223° |
| 2026-04-27 09:31 | 40.06401 | 33.30763 | 20001 ft | 349 kts | 223° |
| 2026-04-27 09:31 | 40.04569 | 33.28683 | 19632 ft | 347 kts | 223° |
| 2026-04-27 09:31 | 40.02755 | 33.26623 | 19279 ft | 345 kts | 223° |
| 2026-04-27 09:32 | 40.00898 | 33.24653 | 18921 ft | 344 kts | 219° |
| 2026-04-27 09:32 | 39.98971 | 33.22800 | 18555 ft | 343 kts | 218° |
| 2026-04-27 09:32 | 39.97039 | 33.20991 | 18171 ft | 341 kts | 218° |
| 2026-04-27 09:32 | 39.95114 | 33.19188 | 17772 ft | 340 kts | 217° |
| 2026-04-27 09:33 | 39.93208 | 33.17392 | 17337 ft | 335 kts | 218° |
| 2026-04-27 09:33 | 39.91338 | 33.15619 | 16889 ft | 329 kts | 218° |
| 2026-04-27 09:33 | 39.89511 | 33.13879 | 16453 ft | 323 kts | 218° |
| 2026-04-27 09:33 | 39.87710 | 33.12163 | 16013 ft | 318 kts | 218° |
| 2026-04-27 09:34 | 39.85942 | 33.10481 | 15581 ft | 313 kts | 218° |
| 2026-04-27 09:34 | 39.84196 | 33.08821 | 15167 ft | 309 kts | 218° |
| 2026-04-27 09:34 | 39.82471 | 33.07181 | 14739 ft | 305 kts | 218° |
| 2026-04-27 09:34 | 39.80767 | 33.05561 | 14301 ft | 302 kts | 218° |
| 2026-04-27 09:35 | 39.79079 | 33.03958 | 13876 ft | 299 kts | 218° |
| 2026-04-27 09:35 | 39.77428 | 33.02391 | 13411 ft | 296 kts | 218° |
| 2026-04-27 09:35 | 39.75818 | 33.00750 | 12933 ft | 292 kts | 230° |
| 2026-04-27 09:35 | 39.74899 | 32.98464 | 12375 ft | 286 kts | 262° |
| 2026-04-27 09:36 | 39.74948 | 32.95931 | 11868 ft | 280 kts | 287° |
| 2026-04-27 09:36 | 39.75750 | 32.93658 | 11339 ft | 277 kts | 307° |
| 2026-04-27 09:36 | 39.77092 | 32.91887 | 10842 ft | 276 kts | 327° |
| 2026-04-27 09:36 | 39.78677 | 32.90480 | 10328 ft | 278 kts | 317° |
| 2026-04-27 09:37 | 39.80025 | 32.88662 | 9820 ft | 280 kts | 315° |
| 2026-04-27 09:37 | 39.81370 | 32.86822 | 9259 ft | 280 kts | 315° |
| 2026-04-27 09:37 | 39.82709 | 32.84978 | 8727 ft | 281 kts | 315° |
| 2026-04-27 09:37 | 39.84053 | 32.83118 | 8203 ft | 282 kts | 315° |
| 2026-04-27 09:38 | 39.85397 | 32.81251 | 7690 ft | 283 kts | 315° |
| 2026-04-27 09:38 | 39.86757 | 32.79394 | 7161 ft | 283 kts | 320° |
| 2026-04-27 09:38 | 39.88469 | 32.78301 | 6755 ft | 271 kts | 355° |
| 2026-04-27 09:38 | 39.90266 | 32.78598 | 6720 ft | 255 kts | 18° |
| 2026-04-27 09:39 | 39.91820 | 32.79556 | 6695 ft | 241 kts | 32° |
| 2026-04-27 09:39 | 39.93161 | 32.80763 | 6669 ft | 228 kts | 36° |
| 2026-04-27 09:39 | 39.94391 | 32.81952 | 6669 ft | 211 kts | 36° |
| 2026-04-27 09:39 | 39.95533 | 32.83046 | 6666 ft | 197 kts | 35° |
| 2026-04-27 09:40 | 39.96599 | 32.84079 | 6656 ft | 189 kts | 34° |
| 2026-04-27 09:40 | 39.97669 | 32.85108 | 6466 ft | 197 kts | 35° |
| 2026-04-27 09:40 | 39.98776 | 32.86175 | 6198 ft | 197 kts | 35° |
| 2026-04-27 09:40 | 39.99861 | 32.87219 | 5958 ft | 191 kts | 35° |
| 2026-04-27 09:41 | 40.00917 | 32.88234 | 5709 ft | 186 kts | 35° |
| 2026-04-27 09:41 | 40.01955 | 32.89229 | 5451 ft | 182 kts | 35° |
| 2026-04-27 09:41 | 40.02965 | 32.90201 | 5221 ft | 179 kts | 35° |
| 2026-04-27 09:41 | 40.03967 | 32.91163 | 4993 ft | 179 kts | 36° |
| 2026-04-27 09:42 | 40.04948 | 32.92100 | 4793 ft | 170 kts | 34° |
| 2026-04-27 09:42 | 40.05876 | 32.92996 | 4557 ft | 159 kts | 34° |
| 2026-04-27 09:42 | 40.06751 | 32.93838 | 4347 ft | 155 kts | 35° |
| 2026-04-27 09:42 | 40.07622 | 32.94670 | 4125 ft | 153 kts | 34° |
| 2026-04-27 09:43 | 40.08479 | 32.95495 | 3898 ft | 150 kts | 34° |
| 2026-04-27 09:43 | 40.09318 | 32.96308 | 3705 ft | 149 kts | 36° |
| 2026-04-27 09:43 | 40.10144 | 32.97110 | 3465 ft | 147 kts | 34° |
| 2026-04-27 09:43 | 40.10968 | 32.97899 | 3270 ft | 147 kts | 33° |
| 2026-04-27 09:44 | 40.11788 | 32.98690 | 3134 ft | 141 kts | 34° |
| 2026-04-27 09:44 | 40.12470 | 32.99333 | 3134 ft | 101 kts | 36° |
| 2026-04-27 09:44 | 40.12904 | 32.99747 | 3134 ft | 49 kts | 36° |
| 2026-04-27 09:44 | 40.13053 | 33.00000 | 3133 ft | 18 kts | 66° |
| 2026-04-27 09:45 | 40.13098 | 33.00140 | 3133 ft | 12 kts | 84° |
| 2026-04-27 09:45 | 40.13033 | 33.00175 | 3133 ft | 11 kts | 201° |
| 2026-04-27 09:45 | 40.12969 | 33.00116 | 3133 ft | 11 kts | 216° |
| 2026-04-27 09:45 | 40.12899 | 33.00048 | 3133 ft | 14 kts | 216° |
| 2026-04-27 09:46 | 40.12807 | 32.99960 | 3133 ft | 18 kts | 216° |
| 2026-04-27 09:46 | 40.12693 | 32.99851 | 3133 ft | 22 kts | 216° |
| 2026-04-27 09:46 | 40.12562 | 32.99726 | 3133 ft | 24 kts | 216° |
| 2026-04-27 09:46 | 40.12431 | 32.99601 | 3133 ft | 23 kts | 216° |
| 2026-04-27 09:47 | 40.12305 | 32.99481 | 3133 ft | 22 kts | 214° |
| 2026-04-27 09:47 | 40.12184 | 32.99366 | 3133 ft | 21 kts | 216° |
| 2026-04-27 09:47 | 40.12066 | 32.99252 | 3133 ft | 21 kts | 216° |
| 2026-04-27 09:47 | 40.11950 | 32.99141 | 3133 ft | 20 kts | 216° |
| 2026-04-27 09:48 | 40.11842 | 32.99041 | 3133 ft | 14 kts | 207° |
| 2026-04-27 09:48 | 40.11771 | 32.99095 | 3133 ft | 13 kts | 137° |
| 2026-04-27 09:48 | 40.11689 | 32.99116 | 3133 ft | 13 kts | 207° |
| 2026-04-27 09:48 | 40.11635 | 32.99030 | 3133 ft | 12 kts | 232° |
| 2026-04-27 09:49 | 40.11589 | 32.98997 | 3133 ft | 7 kts | 153° |
| 2026-04-27 09:49 | 40.11563 | 32.99027 | 3133 ft | 3 kts | 141° |
| 2026-04-27 09:49 | 40.11555 | 32.99036 | 3133 ft | 0 kts | 140° |